Syosyun — JD2406 — position and weather

sailwx.info

Track history (hours):
 
Tides and Currents Weather Stations Pressure Air Temp Water Temp Dewpoint Dewpoint Depression Visibility Wind Speed Wind Dir Waves Ship Positions

Syosyun

Last reported at 2017-Feb-16 03:11 UTC. Time now 2017-Feb-25 07:22 UTC.
Position N 34°37' E 134°57'.
Warning: this ship's position is 9 days out of date.

Length 74 m; draft 4 m.

Type: Cargo ship. MMSI: 431000201.

Date/timePositionNaut miles runAvg speedWind from/ knotsBaromVisibWave heightAir tempDewpointWater temp
2017-Feb-16 03:11N 34°37' E 134°57'813.0
2017-Feb-16 02:33N 34°36' E 135°07'1211.8
2017-Feb-16 01:33N 34°33' E 135°21'3 1.3
2017-Feb-15 23:21N 34°31' E 135°24'0 0.1
2017-Feb-15 22:27N 34°31' E 135°24'0 0.0
2017-Feb-15 21:33N 34°31' E 135°24'0 0.0
2017-Feb-15 20:33N 34°31' E 135°24'0 0.0
2017-Feb-15 19:33N 34°31' E 135°24'0 0.0
2017-Feb-15 18:27N 34°31' E 135°24'0 0.0
2017-Feb-15 17:33N 34°31' E 135°24'0 0.0
2017-Feb-15 16:33N 34°31' E 135°24'0 0.0
2017-Feb-15 15:33N 34°31' E 135°24'0 0.0
2017-Feb-15 14:33N 34°31' E 135°24'0 0.0
2017-Feb-15 13:29N 34°31' E 135°24'7 7.8
2017-Feb-15 12:33N 34°29' E 135°15'1211.7
2017-Feb-15 11:31N 34°20' E 135°05'1111.6
2017-Feb-15 10:34N 34°09' E 135°02'237 4.8
2017-Feb-13 09:04N 35°08' E 139°41'711.9
2017-Feb-13 08:30N 35°13' E 139°46'1011.0
2017-Feb-13 07:34N 35°23' E 139°42'1111.1
2017-Feb-13 06:33N 35°31' E 139°52'8 0.2
2017-Feb-11 14:04N 35°33' E 140°02'610.0
2017-Feb-11 13:30N 35°31' E 139°56'1111.1
2017-Feb-11 12:33N 35°24' E 139°46'9 9.2
2017-Feb-11 11:32N 35°14' E 139°47'  
2017-Feb-08 09:18N 35°09' E 139°42'810.6
2017-Feb-08 08:33N 35°16' E 139°46'10 9.9
2017-Feb-08 07:33N 35°26' E 139°45'1111.3
2017-Feb-08 06:33N 35°34' E 139°55'6 0.7
2017-Feb-07 22:31N 35°39' E 139°59'2 0.2
2017-Feb-07 15:16N 35°37' E 139°58'7 9.7
2017-Feb-07 14:34N 35°31' E 139°54'1110.8
2017-Feb-07 13:34N 35°23' E 139°46'  
Track history (hours):
 
Tides and Currents Weather Stations Pressure Air Temp Water Temp Dewpoint Dewpoint Depression Visibility Wind Speed Wind Dir Waves Ship Positions

Syosyun

Last reported at 2017-Feb-16 03:11 UTC. Time now 2017-Feb-25 07:22 UTC.
Position N 34°37' E 134°57'.
Warning: this ship's position is 9 days out of date.

Length 74 m; draft 4 m.

Type: Cargo ship. MMSI: 431000201.

Date/timePositionNaut miles runAvg speedWind from/ knotsBaromVisibWave heightAir tempDewpointWater temp
2017-Feb-16 03:11N 34°37' E 134°57'813.0
2017-Feb-16 02:33N 34°36' E 135°07'1211.8
2017-Feb-16 01:33N 34°33' E 135°21'3 1.3
2017-Feb-15 23:21N 34°31' E 135°24'0 0.1
2017-Feb-15 22:27N 34°31' E 135°24'0 0.0
2017-Feb-15 21:33N 34°31' E 135°24'0 0.0
2017-Feb-15 20:33N 34°31' E 135°24'0 0.0
2017-Feb-15 19:33N 34°31' E 135°24'0 0.0
2017-Feb-15 18:27N 34°31' E 135°24'0 0.0
2017-Feb-15 17:33N 34°31' E 135°24'0 0.0
2017-Feb-15 16:33N 34°31' E 135°24'0 0.0
2017-Feb-15 15:33N 34°31' E 135°24'0 0.0
2017-Feb-15 14:33N 34°31' E 135°24'0 0.0
2017-Feb-15 13:29N 34°31' E 135°24'7 7.8
2017-Feb-15 12:33N 34°29' E 135°15'1211.7
2017-Feb-15 11:31N 34°20' E 135°05'1111.6
2017-Feb-15 10:34N 34°09' E 135°02'237 4.8
2017-Feb-13 09:04N 35°08' E 139°41'711.9
2017-Feb-13 08:30N 35°13' E 139°46'1011.0
2017-Feb-13 07:34N 35°23' E 139°42'1111.1
2017-Feb-13 06:33N 35°31' E 139°52'8 0.2
2017-Feb-11 14:04N 35°33' E 140°02'610.0
2017-Feb-11 13:30N 35°31' E 139°56'1111.1
2017-Feb-11 12:33N 35°24' E 139°46'9 9.2
2017-Feb-11 11:32N 35°14' E 139°47'  
2017-Feb-08 09:18N 35°09' E 139°42'810.6
2017-Feb-08 08:33N 35°16' E 139°46'10 9.9
2017-Feb-08 07:33N 35°26' E 139°45'1111.3
2017-Feb-08 06:33N 35°34' E 139°55'6 0.7
2017-Feb-07 22:31N 35°39' E 139°59'2 0.2
2017-Feb-07 15:16N 35°37' E 139°58'7 9.7
2017-Feb-07 14:34N 35°31' E 139°54'1110.8
2017-Feb-07 13:34N 35°23' E 139°46'  

Dump ship's entire track history